Time;durP1;ratioP1;P1;durP2;ratioP2;P2;SDS_P1;SDS_P2;PMS_P1;PMS_P2;Temp;Humidity;BMP_temperature;BMP_pressure;BME280_temperature;BME280_humidity;BME280_pressure;Samples;Min_cycle;Max_cycle;Signal;HPM_P1;HPM_P2
2022/05/14 00:01:14;;;;;;;0.10;0.10;;;;;;;22.49;40.32;101685.22;5130969;27;20131;-31
2022/05/14 00:03:40;;;;;;;0.10;0.10;;;;;;;22.48;40.29;101680.78;5118452;27;20043;-30
2022/05/14 00:06:09;;;;;;;0.10;0.10;;;;;;;22.50;40.31;101691.63;5135011;27;20043;-30
2022/05/14 00:08:35;;;;;;;0.10;0.10;;;;;;;22.49;40.32;101688.00;5133015;27;20116;-30
2022/05/14 00:13:47;;;;;;;0.10;0.10;;;;;;;22.48;40.42;101697.44;5118517;27;20508;-31
2022/05/14 00:16:13;;;;;;;0.10;0.10;;;;;;;22.49;40.46;101689.94;5134326;27;20079;-31
2022/05/14 00:18:39;;;;;;;0.10;0.10;;;;;;;22.48;40.28;101682.72;5113207;27;20054;-30
2022/05/14 00:21:05;;;;;;;0.08;0.08;;;;;;;22.48;40.23;101686.34;5142400;27;20039;-31
2022/05/14 00:23:31;;;;;;;0.10;0.10;;;;;;;22.47;40.42;101693.00;5137155;27;20085;-30
2022/05/14 00:25:57;;;;;;;0.10;0.10;;;;;;;22.47;40.35;101687.47;5142037;27;20047;-32
2022/05/14 00:28:23;;;;;;;0.10;0.10;;;;;;;22.47;40.45;101687.47;5134078;27;20089;-30
2022/05/14 00:30:48;;;;;;;0.10;0.10;;;;;;;22.48;40.35;101683.56;5136208;27;20043;-31
2022/05/14 00:33:14;;;;;;;0.10;0.10;;;;;;;22.47;40.30;101687.47;5138846;27;20386;-31
2022/05/14 00:35:41;;;;;;;0.10;0.10;;;;;;;22.46;40.42;101688.59;5132449;27;20051;-31
2022/05/14 00:38:08;;;;;;;0.10;0.10;;;;;;;22.47;40.48;101689.41;5138671;27;20078;-30
2022/05/14 00:40:37;;;;;;;0.00;0.00;;;;;;;22.47;40.45;101686.63;5137624;27;20508;-31
2022/05/14 00:43:03;;;;;;;0.10;0.10;;;;;;;22.46;40.38;101691.34;5138424;27;20226;-32
2022/05/14 00:45:32;;;;;;;0.10;0.10;;;;;;;22.47;40.45;101681.09;5135313;27;20446;-31
2022/05/14 00:48:00;;;;;;;0.10;0.10;;;;;;;22.46;40.53;101684.97;5114421;27;20130;-30
2022/05/14 00:50:36;;;;;;;0.10;0.10;;;;;;;22.47;40.42;101686.63;5138714;27;20070;-30
2022/05/14 00:53:06;;;;;;;0.10;0.10;;;;;;;22.46;40.47;101682.22;5135843;27;20489;-31
2022/05/14 00:55:31;;;;;;;0.10;0.10;;;;;;;22.46;40.50;101683.03;5135935;27;20081;-31
2022/05/14 00:57:57;;;;;;;0.10;0.10;;;;;;;22.45;40.54;101681.38;5136659;27;20051;-31
2022/05/14 01:00:24;;;;;;;0.10;0.10;;;;;;;22.44;40.34;101679.69;5141117;27;20146;-31
2022/05/14 01:02:50;;;;;;;0.10;0.10;;;;;;;22.45;40.44;101681.38;5133102;27;20094;-31
2022/05/14 01:05:18;;;;;;;0.10;0.10;;;;;;;22.45;40.52;101681.38;5115195;27;20141;-31
2022/05/14 01:07:45;;;;;;;0.10;0.10;;;;;;;22.44;40.48;101676.91;5111007;27;20074;-30
2022/05/14 01:10:12;;;;;;;0.05;0.05;;;;;;;22.45;40.45;101666.66;5141538;27;20499;-32
2022/05/14 01:12:48;;;;;;;0.10;0.10;;;;;;;22.44;40.36;101678.88;5133637;27;20133;-30
2022/05/14 01:15:18;;;;;;;0.10;0.10;;;;;;;22.44;40.55;101679.69;5116165;28;20508;-30
2022/05/14 01:17:44;;;;;;;0.10;0.10;;;;;;;22.44;40.39;101673.31;5134654;27;20438;-30
2022/05/14 01:20:11;;;;;;;0.10;0.10;;;;;;;22.43;40.59;101678.03;5133374;27;20070;-31
2022/05/14 01:22:59;;;;;;;0.10;0.10;;;;;;;22.43;40.42;101680.81;5137195;27;20050;-32
2022/05/14 01:26:36;;;;;;;0.10;0.10;;;;;;;22.43;40.36;101675.28;5123364;27;20081;-31
2022/05/14 01:28:50;;;;;;;0.10;0.10;;;;;;;22.43;40.52;101680.81;5095892;27;20078;-31
2022/05/14 01:31:16;;;;;;;0.10;0.10;;;;;;;22.42;40.59;101681.94;5135509;27;20043;-31
2022/05/14 01:33:42;;;;;;;0.10;0.10;;;;;;;22.43;40.81;101678.03;5135850;27;20043;-32
2022/05/14 01:36:08;;;;;;;0.10;0.10;;;;;;;22.43;40.51;101685.53;5139005;27;20042;-30
2022/05/14 01:38:35;;;;;;;0.10;0.10;;;;;;;22.43;40.51;101685.53;5133018;27;20081;-30
2022/05/14 01:41:01;;;;;;;0.10;0.10;;;;;;;22.42;40.46;101689.44;5119479;27;20389;-32
2022/05/14 01:43:28;;;;;;;0.10;0.10;;;;;;;22.43;40.48;101688.31;5135560;27;20074;-32
2022/05/14 01:45:53;;;;;;;0.10;0.10;;;;;;;22.42;40.44;101681.94;5135965;27;20070;-31
2022/05/14 01:48:19;;;;;;;0.10;0.10;;;;;;;22.43;40.25;101688.31;5131991;27;20439;-32
2022/05/14 01:50:45;;;;;;;0.10;0.10;;;;;;;22.42;40.55;101684.72;5138269;27;20045;-31
2022/05/14 01:53:10;;;;;;;0.10;0.10;;;;;;;22.42;40.41;101683.88;5133119;27;20047;-31
2022/05/14 01:55:36;;;;;;;0.10;0.10;;;;;;;22.42;40.60;101684.72;5142759;27;20087;-30
2022/05/14 01:58:36;;;;;;;0.10;0.10;;;;;;;22.42;40.48;101686.66;5114498;27;20046;-30
2022/05/14 02:00:49;;;;;;;0.10;0.10;;;;;;;22.42;40.53;101681.13;5121675;27;20074;-31
2022/05/14 02:03:15;;;;;;;0.10;0.10;;;;;;;22.41;40.50;101683.06;5133907;27;20051;-31
2022/05/14 02:05:40;;;;;;;0.10;0.10;;;;;;;22.40;40.59;101681.38;5132824;27;20092;-30
2022/05/14 02:08:06;;;;;;;0.10;0.10;;;;;;;22.41;40.60;101690.53;5131731;27;20054;-30
2022/05/14 02:10:32;;;;;;;0.10;0.10;;;;;;;22.41;40.64;101684.97;5129157;27;20043;-30
2022/05/14 02:12:57;;;;;;;0.10;0.10;;;;;;;22.41;40.54;101676.66;5133247;27;21556;-30
2022/05/14 02:15:24;;;;;;;0.10;0.10;;;;;;;22.40;40.54;101686.09;5133036;27;20109;-31
2022/05/14 02:17:49;;;;;;;0.10;0.10;;;;;;;22.40;40.59;101686.94;5135464;27;20145;-31
2022/05/14 02:20:16;;;;;;;0.10;0.10;;;;;;;22.40;40.54;101684.16;5132920;27;20082;-32
2022/05/14 02:22:41;;;;;;;0.10;0.10;;;;;;;22.40;40.49;101678.59;5135992;27;20050;-31
2022/05/14 02:25:08;;;;;;;0.10;0.10;;;;;;;22.40;40.50;101691.66;5137641;27;20150;-31
2022/05/14 02:27:34;;;;;;;0.10;0.10;;;;;;;22.41;40.54;101684.97;5133716;27;20067;-31
2022/05/14 02:29:59;;;;;;;0.10;0.10;;;;;;;22.39;40.53;101685.28;5135566;27;20078;-31
2022/05/14 02:32:27;;;;;;;0.10;0.10;;;;;;;22.40;40.62;101689.69;5131171;27;20066;-33
2022/05/14 02:34:53;;;;;;;0.10;0.10;;;;;;;22.40;40.72;101700.81;5138502;27;20043;-30
2022/05/14 02:37:23;;;;;;;0.10;0.10;;;;;;;22.40;40.57;101697.19;5133260;27;20134;-30
2022/05/14 02:39:49;;;;;;;0.10;0.10;;;;;;;22.39;40.70;101690.81;5138269;27;20457;-30
2022/05/14 02:42:16;;;;;;;0.10;0.10;;;;;;;22.39;40.58;101701.94;5115637;27;20529;-30
2022/05/14 02:44:42;;;;;;;0.10;0.10;;;;;;;22.40;40.64;101694.44;5134509;27;20043;-31
2022/05/14 02:47:07;;;;;;;0.10;0.10;;;;;;;22.39;40.73;101701.09;5136333;27;20042;-30
2022/05/14 02:49:33;;;;;;;0.10;0.10;;;;;;;22.39;40.49;101699.16;5132794;27;20112;-30
2022/05/14 02:51:59;;;;;;;0.10;0.10;;;;;;;22.39;40.57;101703.88;5116594;27;20095;-30
2022/05/14 02:54:24;;;;;;;0.10;0.10;;;;;;;22.38;40.34;101697.50;5138712;27;20039;-30
2022/05/14 02:56:50;;;;;;;0.10;0.10;;;;;;;22.38;40.64;101693.91;5137661;27;20035;-31
2022/05/14 02:59:16;;;;;;;0.10;0.10;;;;;;;22.38;40.80;101700.28;5138228;27;20075;-31
2022/05/14 03:01:49;;;;;;;0.10;0.10;;;;;;;22.37;40.51;101695.84;5140562;27;20039;-31
2022/05/14 03:04:22;;;;;;;0.10;0.10;;;;;;;22.38;40.58;101694.72;5135714;27;20451;-31
2022/05/14 03:06:50;;;;;;;0.10;0.10;;;;;;;22.38;40.76;101699.44;5132850;27;20079;-30
2022/05/14 03:09:16;;;;;;;;;;;;;;;22.37;40.62;101698.63;5136903;27;20462;-30
2022/05/14 03:11:41;;;;;;;0.10;0.10;;;;;;;22.38;40.52;101703.06;5142228;27;20346;-31
2022/05/14 03:14:07;;;;;;;0.10;0.10;;;;;;;22.39;40.64;101698.31;5144608;27;20039;-31
2022/05/14 03:16:33;;;;;;;0.10;0.10;;;;;;;22.37;40.82;101693.06;5136669;27;20041;-30
2022/05/14 03:18:58;;;;;;;0.10;0.10;;;;;;;22.36;40.59;101696.09;5137024;27;20043;-30
2022/05/14 03:21:24;;;;;;;0.10;0.10;;;;;;;22.37;40.64;101698.63;5136522;27;20049;-30
2022/05/14 03:23:50;;;;;;;0.10;0.10;;;;;;;22.36;40.72;101696.94;5139626;27;20518;-31
2022/05/14 03:26:15;;;;;;;0.10;0.10;;;;;;;22.37;40.65;101695.03;5136442;27;20059;-30
2022/05/14 03:28:41;;;;;;;0.10;0.10;;;;;;;22.37;40.79;101684.75;5141131;27;20050;-31
2022/05/14 03:31:07;;;;;;;0.10;0.10;;;;;;;22.37;40.64;101698.63;5138163;27;20039;-31
2022/05/14 03:33:33;;;;;;;0.10;0.10;;;;;;;22.37;40.57;101686.69;5136456;27;20394;-31
2022/05/14 03:35:58;;;;;;;0.10;0.10;;;;;;;22.36;40.71;101691.38;5136744;27;20050;-30
2022/05/14 03:38:24;;;;;;;0.10;0.10;;;;;;;22.36;40.68;101693.34;5133788;27;20388;-32
2022/05/14 03:40:50;;;;;;;0.10;0.10;;;;;;;22.37;40.73;101692.25;5133573;27;20039;-31
2022/05/14 03:43:16;;;;;;;0.10;0.10;;;;;;;22.35;40.59;101686.97;5139909;27;20517;-32
2022/05/14 03:45:42;;;;;;;0.10;0.10;;;;;;;22.36;40.69;101691.38;5138187;27;20428;-30
2022/05/14 03:48:07;;;;;;;0.10;0.10;;;;;;;22.36;40.61;101685.00;5114429;27;20050;-32
2022/05/14 03:50:33;;;;;;;0.10;0.10;;;;;;;22.36;40.71;101696.09;5143170;27;20069;-30
2022/05/14 03:52:59;;;;;;;0.10;0.10;;;;;;;22.36;40.57;101696.09;5137745;27;20312;-29
2022/05/14 03:55:24;;;;;;;0.10;0.10;;;;;;;22.34;40.66;101693.63;5136762;27;20050;-30
2022/05/14 03:57:50;;;;;;;0.10;0.10;;;;;;;22.35;40.68;101689.72;5117729;27;20458;-30
2022/05/14 04:00:17;;;;;;;0.10;0.10;;;;;;;22.35;40.69;101695.28;5139716;27;20057;-31
2022/05/14 04:02:43;;;;;;;0.10;0.10;;;;;;;22.34;40.62;101695.56;5114806;27;20133;-30
2022/05/14 04:05:09;;;;;;;0.10;0.10;;;;;;;22.35;40.78;101694.44;5136499;27;20519;-33
2022/05/14 04:07:35;;;;;;;0.10;0.10;;;;;;;22.35;40.74;101698.06;5138786;27;20039;-31
2022/05/14 04:10:00;;;;;;;0.10;0.10;;;;;;;22.34;40.68;101696.41;5134669;27;20473;-31
2022/05/14 04:12:30;;;;;;;0.10;0.10;;;;;;;22.34;40.67;101696.41;5137467;27;20084;-32
2022/05/14 04:14:56;;;;;;;0.10;0.10;;;;;;;22.34;40.68;101701.13;5140948;27;20308;-31
2022/05/14 04:17:21;;;;;;;0.10;0.10;;;;;;;22.34;40.82;101699.19;5128488;27;20047;-30
2022/05/14 04:19:47;;;;;;;0.10;0.10;;;;;;;22.33;40.69;101705.84;5135601;27;20046;-30
2022/05/14 04:22:12;;;;;;;0.20;0.20;;;;;;;22.33;40.84;101707.78;5134600;27;20454;-30
2022/05/14 04:24:38;;;;;;;0.10;0.10;;;;;;;22.33;40.60;101705.84;5140952;27;20369;-30
2022/05/14 04:27:04;;;;;;;0.10;0.10;;;;;;;22.33;40.72;101711.41;5137113;27;20047;-31
2022/05/14 04:29:30;;;;;;;0.10;0.10;;;;;;;22.33;40.79;101716.94;5139116;27;20134;-31
2022/05/14 04:31:55;;;;;;;0.10;0.10;;;;;;;22.34;40.74;101715.00;5133871;27;20039;-30
2022/05/14 04:34:21;;;;;;;0.10;0.10;;;;;;;22.33;40.75;101719.72;5133373;27;20064;-30
2022/05/14 04:36:47;;;;;;;0.10;0.10;;;;;;;22.32;40.77;101715.25;5141082;27;20051;-30
2022/05/14 04:39:12;;;;;;;0.10;0.10;;;;;;;22.33;40.69;101718.91;5136763;27;20050;-30
2022/05/14 04:41:38;;;;;;;0.10;0.10;;;;;;;22.32;40.68;101720.81;5135545;27;20047;-31
2022/05/14 04:44:09;;;;;;;0.10;0.10;;;;;;;22.33;40.72;101728.03;5113551;27;20035;-33
2022/05/14 04:46:35;;;;;;;0.10;0.10;;;;;;;22.33;40.84;101730.00;5134638;27;20443;-31
2022/05/14 04:49:03;;;;;;;0.10;0.10;;;;;;;22.32;40.75;101723.59;5135228;27;20062;-30
2022/05/14 04:51:28;;;;;;;0.10;0.10;;;;;;;22.31;41.08;101724.72;5121679;27;20138;-31
2022/05/14 04:53:54;;;;;;;0.10;0.10;;;;;;;22.32;40.74;101726.38;5138267;27;20038;-31
2022/05/14 04:56:20;;;;;;;0.10;0.10;;;;;;;22.32;40.77;101725.53;5134491;27;20043;-30
2022/05/14 04:58:45;;;;;;;0.17;0.17;;;;;;;22.31;40.84;101733.03;5137563;27;20526;-30
2022/05/14 05:01:11;;;;;;;0.10;0.10;;;;;;;22.32;40.56;101731.09;5137781;27;20041;-31
2022/05/14 05:03:37;;;;;;;0.10;0.10;;;;;;;22.33;40.74;101735.53;5137396;27;20047;-30
2022/05/14 05:06:04;;;;;;;0.10;0.10;;;;;;;22.32;40.83;101737.47;5133879;27;20043;-31
2022/05/14 05:08:31;;;;;;;0.10;0.10;;;;;;;22.31;40.76;101741.34;5140622;27;20077;-31
2022/05/14 05:10:57;;;;;;;0.10;0.10;;;;;;;22.31;40.86;101733.03;5134791;27;20074;-30
2022/05/14 05:13:26;;;;;;;0.10;0.10;;;;;;;22.31;40.93;101738.59;5132971;27;20043;-30
2022/05/14 05:15:52;;;;;;;0.10;0.10;;;;;;;22.31;40.86;101738.59;5137197;27;20138;-31
2022/05/14 05:18:18;;;;;;;0.10;0.10;;;;;;;22.31;40.76;101735.81;5134125;27;20187;-30
2022/05/14 05:20:45;;;;;;;0.10;0.10;;;;;;;22.30;40.71;101742.47;5135016;27;20125;-32
2022/05/14 05:23:13;;;;;;;0.10;0.10;;;;;;;22.31;40.80;101734.97;5129356;27;20078;-32
2022/05/14 05:25:39;;;;;;;0.00;0.00;;;;;;;22.31;40.81;101740.53;5132322;27;20185;-31
2022/05/14 05:28:04;;;;;;;0.00;0.00;;;;;;;22.30;40.81;101739.72;5132151;27;20063;-31
2022/05/14 05:30:31;;;;;;;0.10;0.10;;;;;;;22.29;40.73;101749.97;5143686;27;20034;-30
2022/05/14 05:32:57;;;;;;;0.10;0.10;;;;;;;22.29;40.84;101749.97;5133954;27;20137;-32
2022/05/14 05:35:23;;;;;;;0.10;0.10;;;;;;;22.29;40.84;101755.53;5137762;27;20289;-30
2022/05/14 05:37:49;;;;;;;0.10;0.10;;;;;;;22.29;40.82;101760.25;5138580;27;21244;-30
2022/05/14 05:40:16;;;;;;;0.10;0.10;;;;;;;22.31;40.76;101759.97;5135741;27;20043;-30
2022/05/14 05:42:42;;;;;;;0.10;0.10;;;;;;;22.29;40.85;101763.84;5136681;27;20079;-30
2022/05/14 05:45:08;;;;;;;0.10;0.10;;;;;;;22.30;40.86;101773.00;5133980;27;20406;-30
2022/05/14 05:47:34;;;;;;;0.10;0.10;;;;;;;22.28;40.81;101770.53;5130974;27;20047;-30
2022/05/14 05:50:00;;;;;;;0.10;0.10;;;;;;;22.29;40.79;101769.41;5132885;27;20062;-30
2022/05/14 05:52:26;;;;;;;0.10;0.10;;;;;;;22.29;40.79;101768.56;5134269;27;20055;-31
2022/05/14 05:57:39;;;;;;;0.10;0.10;;;;;;;22.29;40.92;101779.69;5123167;27;20088;-31
2022/05/14 06:00:13;;;;;;;0.10;0.10;;;;;;;22.27;40.92;101779.94;5130530;27;20468;-30
2022/05/14 06:02:38;;;;;;;0.10;0.10;;;;;;;22.28;40.89;101781.63;5101439;27;20066;-32
2022/05/14 06:05:05;;;;;;;0.10;0.10;;;;;;;22.28;40.82;101778.84;5132456;27;20046;-30
2022/05/14 06:07:32;;;;;;;0.10;0.10;;;;;;;22.27;40.86;101779.09;5137965;27;20066;-31
2022/05/14 06:09:58;;;;;;;0.10;0.10;;;;;;;22.28;40.86;101781.63;5141392;27;20074;-30
2022/05/14 06:12:24;;;;;;;0.10;0.10;;;;;;;22.28;40.80;101783.56;5132588;27;20051;-30
2022/05/14 06:14:49;;;;;;;0.10;0.10;;;;;;;22.29;40.90;101785.22;5119079;27;20039;-31
2022/05/14 06:17:15;;;;;;;0.10;0.10;;;;;;;22.27;40.73;101782.72;5135407;27;20054;-30
2022/05/14 06:19:42;;;;;;;0.10;0.10;;;;;;;22.27;40.89;101773.56;5139422;27;20070;-31
2022/05/14 06:22:08;;;;;;;0.10;0.10;;;;;;;22.27;40.75;101782.72;5113578;27;20089;-30
2022/05/14 06:24:36;;;;;;;0.10;0.10;;;;;;;22.28;40.81;101789.13;5137790;27;20039;-30
2022/05/14 06:27:02;;;;;;;0.10;0.10;;;;;;;22.27;40.83;101785.47;5138315;27;20508;-30
2022/05/14 06:29:29;;;;;;;0.10;0.10;;;;;;;22.27;40.86;101787.44;5140299;27;20039;-30
2022/05/14 06:31:54;;;;;;;0.20;0.20;;;;;;;22.27;40.80;101787.44;5138531;27;20179;-32
2022/05/14 06:34:20;;;;;;;0.10;0.10;;;;;;;22.26;40.92;101789.38;5138575;27;20050;-30
2022/05/14 06:36:46;;;;;;;0.10;0.10;;;;;;;22.26;40.82;101789.38;5134257;27;20047;-30
2022/05/14 06:39:11;;;;;;;0.10;0.10;;;;;;;22.26;40.89;101794.94;5119111;27;20047;-30
2022/05/14 06:41:38;;;;;;;0.10;0.10;;;;;;;22.26;40.86;101789.38;5139003;27;20447;-30
2022/05/14 06:44:04;;;;;;;0.10;0.10;;;;;;;22.26;40.92;101788.56;5136646;27;20066;-31
2022/05/14 06:46:30;;;;;;;0.10;0.10;;;;;;;22.26;40.94;101791.31;5137522;27;20574;-31
2022/05/14 06:48:56;;;;;;;0.10;0.10;;;;;;;22.26;40.87;101794.94;5138031;27;20046;-30
2022/05/14 06:51:24;;;;;;;0.10;0.10;;;;;;;22.27;40.79;101806.84;5139317;27;20041;-32
2022/05/14 06:53:51;;;;;;;0.00;0.00;;;;;;;22.26;40.79;101803.25;5140028;27;20418;-31
2022/05/14 06:56:17;;;;;;;0.10;0.10;;;;;;;22.26;40.92;101805.19;5137702;27;20075;-30
2022/05/14 06:58:48;;;;;;;0.10;0.10;;;;;;;22.25;40.66;101801.59;5123049;27;20527;-31
2022/05/14 07:01:15;;;;;;;0.10;0.10;;;;;;;22.25;40.86;101801.59;5137911;27;20093;-30
2022/05/14 07:06:41;;;;;;;0.10;0.10;;;;;;;22.25;40.96;101800.78;5123479;27;20074;-31
2022/05/14 07:09:12;;;;;;;0.10;0.10;;;;;;;22.25;40.82;101809.09;5133246;27;20078;-31
2022/05/14 07:11:40;;;;;;;0.10;0.10;;;;;;;22.25;40.80;101796.03;5118959;27;20078;-30
2022/05/14 07:14:05;;;;;;;0.10;0.10;;;;;;;22.25;40.78;101798.81;5139458;27;20062;-32
2022/05/14 07:16:31;;;;;;;0.10;0.10;;;;;;;22.25;40.92;101801.59;5137875;27;20096;-30
2022/05/14 07:18:57;;;;;;;0.10;0.10;;;;;;;22.24;40.85;101801.88;5135321;27;20074;-30
2022/05/14 07:21:28;;;;;;;0.10;0.10;;;;;;;22.24;40.85;101808.25;5137644;27;20039;-31
2022/05/14 07:23:54;;;;;;;0.10;0.10;;;;;;;22.24;40.96;101810.22;5138703;27;20389;-32
2022/05/14 07:26:19;;;;;;;0.10;0.10;;;;;;;22.24;40.80;101804.66;5136927;27;20047;-30
2022/05/14 07:28:45;;;;;;;0.10;0.10;;;;;;;22.25;40.95;101809.09;5137839;27;21137;-31
2022/05/14 07:31:10;;;;;;;0.10;0.10;;;;;;;22.24;40.97;101807.44;5140321;27;20053;-30
2022/05/14 07:33:37;;;;;;;0.10;0.10;;;;;;;22.23;41.04;101803.81;5140066;27;20043;-30
2022/05/14 07:36:07;;;;;;;0.10;0.10;;;;;;;22.24;40.87;101801.88;5132536;27;20069;-30
2022/05/14 07:38:34;;;;;;;0.10;0.10;;;;;;;22.24;40.87;101799.13;5118068;27;20133;-30
2022/05/14 07:41:01;;;;;;;0.10;0.10;;;;;;;22.24;40.82;101793.56;5137008;27;20060;-32
2022/05/14 07:43:30;;;;;;;0.10;0.10;;;;;;;22.24;40.92;101788.84;5144990;27;20137;-30
2022/05/14 07:45:59;;;;;;;0.00;0.00;;;;;;;22.24;40.83;101793.56;5137133;27;20135;-31
2022/05/14 07:48:29;;;;;;;0.10;0.10;;;;;;;22.24;40.90;101791.63;5137175;27;20459;-30
2022/05/14 07:50:54;;;;;;;0.10;0.10;;;;;;;22.23;40.97;101795.47;5140076;27;20454;-30
2022/05/14 07:53:20;;;;;;;0.10;0.10;;;;;;;22.24;40.91;101791.63;5135926;27;20050;-30
2022/05/14 07:55:46;;;;;;;0.10;0.10;;;;;;;22.25;40.97;101801.59;5145983;27;20149;-31
2022/05/14 07:58:12;;;;;;;0.10;0.10;;;;;;;22.24;41.00;101788.00;5136146;27;20054;-31
2022/05/14 08:00:38;;;;;;;0.10;0.10;;;;;;;22.24;40.97;101788.00;5138081;27;20074;-31
2022/05/14 08:03:04;;;;;;;0.10;0.10;;;;;;;22.23;40.90;101789.94;5119556;27;20459;-30
2022/05/14 08:05:30;;;;;;;0.10;0.10;;;;;;;22.23;40.74;101794.66;5137897;27;20042;-31
2022/05/14 08:07:57;;;;;;;0.10;0.10;;;;;;;22.23;41.01;101800.19;5135432;27;20159;-31
2022/05/14 08:10:22;;;;;;;0.10;0.10;;;;;;;22.24;41.00;101799.13;5117614;27;20414;-30
2022/05/14 08:12:51;;;;;;;0.10;0.10;;;;;;;22.23;40.90;101789.94;5138564;27;20046;-30
2022/05/14 08:15:22;;;;;;;0.10;0.10;;;;;;;22.22;40.91;101796.59;5117811;27;20047;-31
2022/05/14 08:17:48;;;;;;;0.10;0.10;;;;;;;22.24;40.88;101796.34;5133682;27;20071;-30
2022/05/14 08:20:14;;;;;;;0.10;0.10;;;;;;;22.23;40.88;101789.09;5136073;27;20062;-30
2022/05/14 08:25:27;;;;;;;0.10;0.10;;;;;;;22.22;40.97;101796.59;5134981;27;20142;-30
2022/05/14 08:27:53;;;;;;;0.10;0.10;;;;;;;22.22;41.01;101795.78;5136713;27;20073;-30
2022/05/14 08:30:24;;;;;;;0.10;0.10;;;;;;;22.22;41.11;101804.09;5139060;27;20051;-30
2022/05/14 08:32:49;;;;;;;0.10;0.10;;;;;;;22.21;41.00;101796.88;5134965;27;20133;-31
2022/05/14 08:35:16;;;;;;;0.10;0.10;;;;;;;22.22;40.91;101793.00;5136289;27;20099;-31
2022/05/14 08:37:44;;;;;;;0.10;0.10;;;;;;;22.23;41.00;101802.97;5131912;27;20134;-30
2022/05/14 08:40:30;;;;;;;0.10;0.10;;;;;;;22.23;41.00;101800.19;5140926;27;20078;-30
2022/05/14 08:43:01;;;;;;;0.10;0.10;;;;;;;22.22;40.97;101798.53;5119222;27;20490;-30
2022/05/14 08:45:29;;;;;;;0.10;0.10;;;;;;;22.22;41.01;101793.81;5137962;27;20452;-31
2022/05/14 08:47:57;;;;;;;0.10;0.10;;;;;;;22.21;40.98;101783.84;5133345;27;20509;-30
2022/05/14 08:50:24;;;;;;;;;;;;;;;22.21;40.88;101792.16;5137100;27;20086;-31
2022/05/14 08:52:50;;;;;;;0.10;0.10;;;;;;;22.20;41.00;101784.97;5137560;27;19964;-30
2022/05/14 08:55:17;;;;;;;0.10;0.10;;;;;;;22.21;40.99;101788.56;5138602;27;20086;-30
2022/05/14 08:58:22;;;;;;;0.10;0.10;;;;;;;22.21;40.94;101791.34;5133451;27;20077;-32
2022/05/14 09:00:48;;;;;;;0.10;0.10;;;;;;;22.20;40.87;101790.50;5118942;27;20508;-31
2022/05/14 09:03:14;;;;;;;0.10;0.10;;;;;;;22.22;41.02;101790.22;5135151;27;20047;-31
2022/05/14 09:05:39;;;;;;;0.10;0.10;;;;;;;22.22;40.99;101793.00;5134795;27;20095;-30
2022/05/14 09:08:06;;;;;;;0.10;0.10;;;;;;;22.21;40.96;101785.78;5133717;27;20104;-32
2022/05/14 09:10:38;;;;;;;0.10;0.10;;;;;;;22.21;41.00;101781.06;5116778;27;20497;-30
2022/05/14 09:13:21;;;;;;;0.10;0.10;;;;;;;22.21;40.98;101778.28;5136900;27;20175;-30
2022/05/14 09:15:55;;;;;;;0.10;0.10;;;;;;;22.20;40.91;101782.19;5129500;27;20046;-30
2022/05/14 09:18:23;;;;;;;0.10;0.10;;;;;;;22.21;40.95;101785.78;5111695;27;20045;-31
2022/05/14 09:20:54;;;;;;;0.10;0.10;;;;;;;22.21;40.88;101789.41;5115033;27;20501;-32
2022/05/14 09:23:29;;;;;;;0.10;0.10;;;;;;;22.21;40.93;101785.78;5132025;27;20494;-30
2022/05/14 09:25:55;;;;;;;0.10;0.10;;;;;;;22.22;40.99;101781.91;5132042;27;20138;-31
2022/05/14 09:28:35;;;;;;;0.10;0.10;;;;;;;22.22;40.99;101785.50;5133191;27;20057;-30
2022/05/14 09:31:01;;;;;;;0.10;0.10;;;;;;;22.20;41.07;101779.41;5131651;27;20081;-29
2022/05/14 09:33:35;;;;;;;0.10;0.10;;;;;;;22.21;40.90;101783.03;5133205;27;20397;-30
2022/05/14 09:36:22;;;;;;;0.10;0.10;;;;;;;22.20;41.03;101778.59;5102517;27;20378;-30
2022/05/14 09:39:00;;;;;;;0.10;0.10;;;;;;;22.20;40.99;101779.41;5136344;27;20081;-31
2022/05/14 09:41:25;;;;;;;0.10;0.10;;;;;;;22.20;41.09;101782.19;5136300;27;20498;-31
2022/05/14 09:43:53;;;;;;;0.10;0.10;;;;;;;22.20;40.94;101779.41;5132693;27;20049;-30
2022/05/14 09:46:28;;;;;;;0.10;0.10;;;;;;;22.21;40.99;101775.53;5114936;27;20058;-32
2022/05/14 09:49:03;;;;;;;0.10;0.10;;;;;;;22.21;40.82;101778.28;5113438;27;20047;-30
2022/05/14 09:51:52;;;;;;;0.10;0.10;;;;;;;22.21;41.11;101778.28;5113249;27;20069;-30
2022/05/14 09:54:53;;;;;;;0.10;0.10;;;;;;;22.20;40.99;101768.31;5120455;27;20105;-30
2022/05/14 09:57:40;;;;;;;0.10;0.10;;;;;;;22.20;41.07;101781.38;5117872;27;20481;-31
2022/05/14 10:00:13;;;;;;;0.10;0.10;;;;;;;22.20;40.88;101775.81;5132305;27;20507;-31
2022/05/14 10:03:06;;;;;;;0.10;0.10;;;;;;;22.20;41.06;101773.03;5115976;27;20047;-31
2022/05/14 10:05:59;;;;;;;0.10;0.10;;;;;;;22.19;40.97;101763.03;5113972;27;20470;-30
2022/05/14 10:08:41;;;;;;;0.10;0.10;;;;;;;22.20;41.03;101767.50;5118054;27;20098;-31
2022/05/14 10:11:30;;;;;;;0.10;0.10;;;;;;;22.20;40.96;101771.09;5140433;27;20040;-31
2022/05/14 10:14:23;;;;;;;0.10;0.10;;;;;;;22.20;41.02;101770.25;5117542;27;20500;-30
2022/05/14 10:17:01;;;;;;;0.10;0.10;;;;;;;22.20;41.04;101768.31;5118121;27;20501;-31
2022/05/14 10:19:46;;;;;;;0.10;0.10;;;;;;;22.19;40.96;101763.03;5132276;27;20070;-31
2022/05/14 10:22:23;;;;;;;0.10;0.10;;;;;;;22.22;41.02;101776.34;5132550;27;20188;-30
2022/05/14 10:28:12;;;;;;;0.10;0.10;;;;;;;22.19;40.96;101765.81;5116857;27;20477;-31
2022/05/14 10:30:51;;;;;;;0.10;0.10;;;;;;;22.19;41.11;101761.13;5137721;27;20488;-30
2022/05/14 10:33:22;;;;;;;0.10;0.10;;;;;;;22.21;40.96;101763.59;5133070;27;20126;-30
2022/05/14 10:36:09;;;;;;;0.10;0.10;;;;;;;22.20;41.03;101765.53;5130050;27;20081;-31
2022/05/14 10:38:56;;;;;;;0.10;0.10;;;;;;;22.20;40.96;101762.78;5112647;27;20279;-31
2022/05/14 10:41:40;;;;;;;0.10;0.10;;;;;;;22.20;41.08;101773.03;5134930;27;20121;-30
2022/05/14 10:44:10;;;;;;;0.10;0.10;;;;;;;22.19;40.92;101775.00;5134558;27;20483;-30
2022/05/14 10:46:36;;;;;;;0.10;0.10;;;;;;;22.20;40.92;101773.03;5114157;27;20085;-31
2022/05/14 10:49:25;;;;;;;0.10;0.10;;;;;;;22.20;41.10;101773.03;5111150;27;20035;-31
2022/05/14 10:51:52;;;;;;;0.10;0.10;;;;;;;22.20;41.01;101765.53;5115491;27;20078;-30
2022/05/14 10:54:24;;;;;;;0.10;0.10;;;;;;;22.18;40.94;101772.47;5134892;27;20099;-31
2022/05/14 10:56:54;;;;;;;0.10;0.10;;;;;;;22.20;41.06;101771.09;5131359;27;20439;-30
2022/05/14 10:59:41;;;;;;;0.10;0.10;;;;;;;22.21;41.02;101760.81;5134655;27;20077;-31
2022/05/14 11:02:13;;;;;;;0.10;0.10;;;;;;;22.19;41.00;101760.25;5114742;27;20082;-30
2022/05/14 11:04:43;;;;;;;0.10;0.10;;;;;;;22.18;41.01;101761.38;5129022;27;20126;-31
2022/05/14 11:07:14;;;;;;;0.10;0.10;;;;;;;22.20;41.11;101764.72;5133922;27;20039;-31
2022/05/14 11:09:43;;;;;;;0.10;0.10;;;;;;;22.19;41.08;101754.72;5120936;27;20089;-30
2022/05/14 11:12:14;;;;;;;0.10;0.10;;;;;;;22.19;41.02;101755.56;5117512;27;20043;-30
2022/05/14 11:14:45;;;;;;;0.10;0.10;;;;;;;22.21;40.98;101760.81;5117388;27;20083;-32
2022/05/14 11:17:34;;;;;;;0.10;0.10;;;;;;;22.20;41.01;101759.16;5138605;27;20071;-30
2022/05/14 11:22:47;;;;;;;0.10;0.10;;;;;;;22.20;40.94;101759.16;5156252;27;20233;-28
2022/05/14 11:25:23;;;;;;;0.10;0.10;;;;;;;22.20;40.99;101754.44;5158121;27;20054;-26
2022/05/14 11:28:11;;;;;;;0.10;0.10;;;;;;;22.20;40.99;101767.50;5155840;27;20078;-28
2022/05/14 11:30:42;;;;;;;0.10;0.10;;;;;;;22.19;41.11;101758.34;5143555;27;20075;-28
2022/05/14 11:39:05;;;;;;;0.10;0.10;;;;;;;22.19;41.11;101752.78;5156766;27;20117;-27
2022/05/14 11:41:35;;;;;;;0.10;0.10;;;;;;;22.19;41.02;101744.47;5155254;27;20489;-28
2022/05/14 11:44:04;;;;;;;0.10;0.10;;;;;;;22.20;41.06;101750.84;5156847;27;20283;-30
2022/05/14 11:49:35;;;;;;;0.10;0.10;;;;;;;22.18;41.08;101750.28;5170310;27;20201;-31
2022/05/14 11:52:22;;;;;;;0.10;0.10;;;;;;;22.20;41.07;101754.44;5134163;27;20050;-30
2022/05/14 11:55:18;;;;;;;0.10;0.10;;;;;;;22.19;41.10;101750.03;5137611;27;20089;-29
2022/05/14 11:57:47;;;;;;;0.10;0.10;;;;;;;22.19;41.02;101752.78;5151584;27;20459;-29
2022/05/14 12:00:16;;;;;;;0.10;0.10;;;;;;;22.17;41.12;101746.69;5151879;27;20132;-30
2022/05/14 12:05:29;;;;;;;0.10;0.10;;;;;;;22.19;41.12;101744.47;5177177;27;20520;-28